Time;durP1;ratioP1;P1;durP2;ratioP2;P2;SDS_P1;SDS_P2;PMS_P1;PMS_P2;Temp;Humidity;BMP_temperature;BMP_pressure;BME280_temperature;BME280_humidity;BME280_pressure;Samples;Min_cycle;Max_cycle;Signal;HPM_P1;HPM_P2
2022/03/19 00:00:17;;;;;;;17.63;4.97;;;;;;;;;;5057330;28;20455;-63
2022/03/19 00:02:44;;;;;;;17.83;4.93;;;;;;;;;;5057367;28;20063;-62
2022/03/19 00:05:11;;;;;;;19.23;5.53;;;;;;;;;;5054673;28;20048;-63
2022/03/19 00:07:40;;;;;;;16.20;5.13;;;;;;;;;;5056724;28;20057;-61
2022/03/19 00:10:08;;;;;;;17.80;4.88;;;;;;;;;;5058627;28;20056;-62
2022/03/19 00:12:39;;;;;;;18.13;4.93;;;;;;;;;;5057553;28;20070;-62
2022/03/19 00:15:07;;;;;;;20.73;5.25;;;;;;;;;;5057127;28;20040;-62
2022/03/19 00:17:33;;;;;;;17.27;4.40;;;;;;;;;;5058182;28;20514;-62
2022/03/19 00:19:59;;;;;;;21.50;4.68;;;;;;;;;;5056895;28;20171;-62
2022/03/19 00:22:26;;;;;;;18.98;4.38;;;;;;;;;;5067722;28;20052;-63
2022/03/19 00:24:52;;;;;;;18.27;4.55;;;;;;;;;;5057511;28;20067;-62
2022/03/19 00:27:18;;;;;;;16.58;4.75;;;;;;;;;;5064482;28;20083;-63
2022/03/19 00:29:45;;;;;;;13.45;5.07;;;;;;;;;;5064339;28;20883;-63
2022/03/19 00:32:11;;;;;;;21.25;5.25;;;;;;;;;;5056186;28;20117;-63
2022/03/19 00:34:38;;;;;;;20.83;4.43;;;;;;;;;;5059346;28;20060;-63
2022/03/19 00:37:04;;;;;;;11.77;4.07;;;;;;;;;;5056752;28;20366;-62
2022/03/19 00:39:30;;;;;;;21.95;4.50;;;;;;;;;;5070433;28;20059;-62
2022/03/19 00:41:57;;;;;;;14.10;3.88;;;;;;;;;;5057440;28;20055;-62
2022/03/19 00:44:23;;;;;;;21.42;4.80;;;;;;;;;;5057846;28;20055;-62
2022/03/19 00:46:50;;;;;;;17.70;4.30;;;;;;;;;;5055268;28;20167;-62
2022/03/19 00:49:16;;;;;;;17.13;4.05;;;;;;;;;;5056515;28;20137;-62
2022/03/19 00:51:43;;;;;;;20.17;4.32;;;;;;;;;;5058799;28;20519;-62
2022/03/19 00:54:10;;;;;;;23.38;5.00;;;;;;;;;;5056871;28;20049;-62
2022/03/19 00:56:37;;;;;;;23.90;5.07;;;;;;;;;;5057393;28;20145;-62
2022/03/19 00:59:03;;;;;;;13.98;4.28;;;;;;;;;;5055809;28;20653;-62
2022/03/19 01:01:29;;;;;;;14.85;3.80;;;;;;;;;;5055731;28;20049;-62
2022/03/19 01:03:56;;;;;;;14.10;4.10;;;;;;;;;;5056236;28;20516;-62
2022/03/19 01:06:23;;;;;;;14.15;3.72;;;;;;;;;;5058531;28;20053;-63
2022/03/19 01:08:55;;;;;;;20.13;3.95;;;;;;;;;;5054801;28;20111;-62
2022/03/19 01:11:23;;;;;;;18.70;3.80;;;;;;;;;;5055734;28;20499;-63
2022/03/19 01:13:50;;;;;;;19.48;4.18;;;;;;;;;;5055628;28;21240;-62
2022/03/19 01:16:19;;;;;;;20.27;3.63;;;;;;;;;;5055461;28;20049;-62
2022/03/19 01:18:46;;;;;;;12.05;3.25;;;;;;;;;;5053989;28;20049;-63
2022/03/19 01:21:12;;;;;;;15.02;3.38;;;;;;;;;;5062829;28;20049;-63
2022/03/19 01:23:39;;;;;;;23.20;4.22;;;;;;;;;;5060257;28;20053;-63
2022/03/19 01:26:05;;;;;;;14.00;3.47;;;;;;;;;;5056491;28;20053;-63
2022/03/19 01:28:32;;;;;;;17.77;3.58;;;;;;;;;;5063565;28;20561;-63
2022/03/19 01:30:58;;;;;;;16.27;4.82;;;;;;;;;;5059849;28;20059;-63
2022/03/19 01:33:25;;;;;;;11.00;3.33;;;;;;;;;;5058075;28;20103;-63
2022/03/19 01:35:51;;;;;;;15.43;3.40;;;;;;;;;;5057508;28;21075;-63
2022/03/19 01:38:18;;;;;;;17.95;3.72;;;;;;;;;;5066617;28;20435;-63
2022/03/19 01:40:44;;;;;;;14.70;3.40;;;;;;;;;;5066544;28;20063;-63
2022/03/19 01:43:10;;;;;;;13.75;3.00;;;;;;;;;;5066698;28;20529;-63
2022/03/19 01:45:37;;;;;;;18.27;3.53;;;;;;;;;;5067469;28;20063;-63
2022/03/19 01:48:03;;;;;;;14.45;3.47;;;;;;;;;;5079144;28;20126;-63
2022/03/19 01:50:30;;;;;;;18.30;3.78;;;;;;;;;;5086065;28;20520;-63
2022/03/19 01:52:56;;;;;;;11.45;3.83;;;;;;;;;;5086188;28;20057;-63
2022/03/19 01:55:24;;;;;;;13.38;2.80;;;;;;;;;;5086705;28;20048;-63
2022/03/19 01:57:51;;;;;;;22.17;3.90;;;;;;;;;;5075535;28;20147;-63
2022/03/19 02:00:18;;;;;;;13.32;3.20;;;;;;;;;;5081114;28;20052;-63
2022/03/19 02:02:46;;;;;;;14.57;3.50;;;;;;;;;;5069251;28;20049;-63
2022/03/19 02:05:16;;;;;;;15.20;3.60;;;;;;;;;;5067146;28;20081;-63
2022/03/19 02:07:44;;;;;;;12.48;3.03;;;;;;;;;;5076075;28;20287;-63
2022/03/19 02:10:11;;;;;;;14.20;3.22;;;;;;;;;;5089014;28;20869;-63
2022/03/19 02:12:38;;;;;;;9.65;2.88;;;;;;;;;;5077366;28;20542;-64
2022/03/19 02:15:05;;;;;;;16.75;3.67;;;;;;;;;;5076578;28;20606;-63
2022/03/19 02:17:31;;;;;;;15.82;3.45;;;;;;;;;;5090457;28;20049;-63
2022/03/19 02:19:58;;;;;;;14.32;2.97;;;;;;;;;;5090910;28;20048;-63
2022/03/19 02:22:29;;;;;;;17.60;3.88;;;;;;;;;;5083656;28;20053;-63
2022/03/19 02:27:41;;;;;;;14.00;3.10;;;;;;;;;;5086641;28;20614;-63
2022/03/19 02:30:10;;;;;;;14.85;3.30;;;;;;;;;;5078410;28;20059;-63
2022/03/19 02:32:38;;;;;;;16.77;3.25;;;;;;;;;;5071119;28;20133;-63
2022/03/19 02:35:04;;;;;;;12.95;3.50;;;;;;;;;;5071453;28;20049;-63
2022/03/19 02:37:38;;;;;;;11.73;3.05;;;;;;;;;;5070257;28;20126;-63
2022/03/19 02:40:05;;;;;;;16.42;3.70;;;;;;;;;;5080471;28;20049;-63
2022/03/19 02:42:31;;;;;;;15.40;3.38;;;;;;;;;;5070756;28;20049;-63
2022/03/19 02:44:58;;;;;;;16.55;3.63;;;;;;;;;;5070380;28;20096;-63
2022/03/19 02:47:24;;;;;;;23.70;3.45;;;;;;;;;;5070258;28;20052;-63
2022/03/19 02:49:50;;;;;;;17.42;4.07;;;;;;;;;;5090349;28;20082;-63
2022/03/19 02:52:16;;;;;;;17.75;3.90;;;;;;;;;;5078322;28;20059;-63
2022/03/19 02:54:43;;;;;;;19.42;3.90;;;;;;;;;;5069363;28;20578;-64
2022/03/19 02:57:09;;;;;;;21.88;3.72;;;;;;;;;;5078809;28;20052;-63
2022/03/19 02:59:35;;;;;;;24.60;4.40;;;;;;;;;;5069525;28;20557;-63
2022/03/19 03:02:03;;;;;;;15.43;3.50;;;;;;;;;;5069920;28;20151;-63
2022/03/19 03:04:30;;;;;;;18.02;4.05;;;;;;;;;;5069506;28;20053;-63
2022/03/19 03:06:58;;;;;;;19.67;3.65;;;;;;;;;;5084267;28;20058;-63
2022/03/19 03:09:25;;;;;;;15.13;3.30;;;;;;;;;;5089717;28;20061;-63
2022/03/19 03:11:52;;;;;;;17.65;3.83;;;;;;;;;;5073319;28;20067;-63
2022/03/19 03:14:20;;;;;;;15.77;3.50;;;;;;;;;;5078136;28;20052;-63
2022/03/19 03:16:51;;;;;;;13.32;3.00;;;;;;;;;;5089377;28;20498;-63
2022/03/19 03:19:18;;;;;;;16.23;4.05;;;;;;;;;;5077852;28;20167;-63
2022/03/19 03:21:45;;;;;;;16.88;3.30;;;;;;;;;;5073345;28;20048;-63
2022/03/19 03:24:12;;;;;;;13.98;3.20;;;;;;;;;;5070924;28;20048;-63
2022/03/19 03:26:39;;;;;;;15.45;3.70;;;;;;;;;;5079883;28;20063;-63
2022/03/19 03:29:06;;;;;;;14.23;3.53;;;;;;;;;;5069964;28;20053;-63
2022/03/19 03:31:32;;;;;;;13.57;3.45;;;;;;;;;;5078942;28;20059;-63
2022/03/19 03:33:58;;;;;;;14.15;3.53;;;;;;;;;;5089014;28;20102;-63
2022/03/19 03:36:25;;;;;;;14.98;3.40;;;;;;;;;;5079512;28;20049;-63
2022/03/19 03:38:51;;;;;;;21.15;4.28;;;;;;;;;;5068595;28;20063;-63
2022/03/19 03:41:18;;;;;;;17.52;4.13;;;;;;;;;;5081709;28;20426;-63
2022/03/19 03:43:45;;;;;;;20.40;3.65;;;;;;;;;;5080998;28;20115;-63
2022/03/19 03:46:12;;;;;;;13.02;3.05;;;;;;;;;;5069008;28;20099;-63
2022/03/19 03:48:38;;;;;;;14.70;3.53;;;;;;;;;;5069782;28;20048;-63
2022/03/19 03:51:06;;;;;;;14.85;3.22;;;;;;;;;;5068802;28;20087;-63
2022/03/19 03:53:34;;;;;;;18.08;3.45;;;;;;;;;;5068536;28;20049;-63
2022/03/19 03:56:00;;;;;;;13.27;3.55;;;;;;;;;;5076931;28;20955;-63
2022/03/19 03:58:27;;;;;;;18.67;4.25;;;;;;;;;;5072090;28;20054;-63
2022/03/19 04:00:53;;;;;;;15.48;3.83;;;;;;;;;;5067843;28;20049;-63
2022/03/19 04:03:20;;;;;;;20.05;3.72;;;;;;;;;;5087090;28;20056;-63
2022/03/19 04:05:46;;;;;;;19.15;3.63;;;;;;;;;;5089712;28;20048;-62
2022/03/19 04:08:12;;;;;;;13.02;3.58;;;;;;;;;;5088327;28;20059;-63
2022/03/19 04:10:39;;;;;;;13.38;3.50;;;;;;;;;;5075783;28;20049;-63
2022/03/19 04:13:05;;;;;;;17.20;3.85;;;;;;;;;;5088145;28;20528;-63
2022/03/19 04:15:31;;;;;;;17.98;3.85;;;;;;;;;;5087076;28;20059;-63
2022/03/19 04:17:58;;;;;;;13.10;3.92;;;;;;;;;;5088234;28;20529;-63
2022/03/19 04:20:24;;;;;;;15.68;4.80;;;;;;;;;;5077326;28;20125;-63
2022/03/19 04:22:51;;;;;;;8.52;3.17;;;;;;;;;;5074301;28;20076;-63
2022/03/19 04:25:19;;;;;;;23.75;3.95;;;;;;;;;;5072004;28;20525;-63
2022/03/19 04:27:46;;;;;;;15.63;3.97;;;;;;;;;;5070991;28;20048;-63
2022/03/19 04:30:13;;;;;;;22.35;4.07;;;;;;;;;;5070484;28;20053;-63
2022/03/19 04:32:41;;;;;;;16.30;4.45;;;;;;;;;;5067110;28;20099;-63
2022/03/19 04:38:01;;;;;;;24.13;4.60;;;;;;;;;;5086593;28;20110;-63
2022/03/19 04:40:28;;;;;;;17.85;3.67;;;;;;;;;;5085790;28;20052;-63
2022/03/19 04:42:54;;;;;;;20.38;4.05;;;;;;;;;;5088485;28;20087;-63
2022/03/19 04:45:21;;;;;;;19.10;4.97;;;;;;;;;;5086515;28;20059;-63
2022/03/19 04:47:47;;;;;;;22.02;4.45;;;;;;;;;;5088218;28;20118;-63
2022/03/19 04:50:13;;;;;;;21.88;4.40;;;;;;;;;;5074564;28;20105;-63
2022/03/19 04:52:40;;;;;;;12.65;3.72;;;;;;;;;;5067716;28;20061;-63
2022/03/19 04:55:07;;;;;;;13.00;3.55;;;;;;;;;;5067973;28;20546;-63
2022/03/19 04:57:34;;;;;;;17.02;4.13;;;;;;;;;;5067580;28;20053;-63
2022/03/19 05:00:01;;;;;;;16.63;4.20;;;;;;;;;;5080542;28;20544;-63
2022/03/19 05:02:27;;;;;;;18.33;4.30;;;;;;;;;;5081181;28;20056;-63
2022/03/19 05:04:54;;;;;;;16.80;3.97;;;;;;;;;;5068786;28;20056;-63
2022/03/19 05:07:21;;;;;;;15.65;4.80;;;;;;;;;;5067204;28;20088;-63
2022/03/19 05:12:35;;;;;;;18.88;4.20;;;;;;;;;;5068573;28;20067;-63
2022/03/19 05:15:02;;;;;;;18.00;4.68;;;;;;;;;;5072653;28;20063;-63
2022/03/19 05:17:28;;;;;;;21.73;5.07;;;;;;;;;;5085230;28;20547;-63
2022/03/19 05:19:54;;;;;;;17.25;4.43;;;;;;;;;;5074864;28;20056;-63
2022/03/19 05:22:21;;;;;;;16.95;4.60;;;;;;;;;;5067192;28;20077;-63
2022/03/19 05:24:47;;;;;;;17.20;5.00;;;;;;;;;;5071636;28;20110;-63
2022/03/19 05:27:13;;;;;;;12.27;4.47;;;;;;;;;;5067597;28;20049;-63
2022/03/19 05:29:40;;;;;;;20.08;4.78;;;;;;;;;;5069656;28;20171;-63
2022/03/19 05:32:06;;;;;;;22.35;5.55;;;;;;;;;;5069762;28;20059;-63
2022/03/19 05:34:34;;;;;;;24.80;5.18;;;;;;;;;;5073390;28;20060;-63
2022/03/19 05:37:01;;;;;;;16.40;4.97;;;;;;;;;;5082269;28;20144;-63
2022/03/19 05:39:28;;;;;;;20.80;5.40;;;;;;;;;;5076783;28;20521;-63
2022/03/19 05:41:54;;;;;;;19.60;5.80;;;;;;;;;;5068811;28;20045;-63
2022/03/19 05:44:20;;;;;;;12.13;5.35;;;;;;;;;;5066032;28;20057;-63
2022/03/19 05:46:47;;;;;;;15.45;5.00;;;;;;;;;;5067242;28;20063;-63
2022/03/19 05:49:14;;;;;;;14.48;5.10;;;;;;;;;;5082538;28;20045;-63
2022/03/19 05:51:41;;;;;;;18.20;5.85;;;;;;;;;;5068447;28;20057;-62
2022/03/19 05:54:08;;;;;;;23.67;5.70;;;;;;;;;;5071689;28;20526;-63
2022/03/19 05:56:34;;;;;;;16.98;5.22;;;;;;;;;;5071133;28;20057;-63
2022/03/19 05:59:01;;;;;;;22.75;6.28;;;;;;;;;;5082204;28;20056;-63
2022/03/19 06:01:27;;;;;;;19.48;5.43;;;;;;;;;;5081193;28;20049;-63
2022/03/19 06:03:54;;;;;;;16.45;5.82;;;;;;;;;;5068179;28;20317;-63
2022/03/19 06:06:21;;;;;;;22.48;6.53;;;;;;;;;;5078114;28;20045;-63
2022/03/19 06:08:47;;;;;;;17.15;5.72;;;;;;;;;;5087389;28;20059;-63
2022/03/19 06:11:13;;;;;;;19.73;5.55;;;;;;;;;;5084922;28;20154;-63
2022/03/19 06:13:40;;;;;;;16.38;5.35;;;;;;;;;;5070972;28;20072;-63
2022/03/19 06:16:06;;;;;;;16.23;6.10;;;;;;;;;;5073654;28;20061;-63
2022/03/19 06:18:32;;;;;;;21.40;6.10;;;;;;;;;;5088018;28;20052;-63
2022/03/19 06:20:59;;;;;;;14.20;5.40;;;;;;;;;;5084585;28;20944;-63
2022/03/19 06:23:25;;;;;;;17.02;6.32;;;;;;;;;;5085784;28;20135;-63
2022/03/19 06:25:52;;;;;;;19.75;6.03;;;;;;;;;;5082951;28;20569;-63
2022/03/19 06:28:18;;;;;;;19.20;5.78;;;;;;;;;;5078589;28;20509;-63
2022/03/19 06:30:44;;;;;;;17.10;6.07;;;;;;;;;;5072240;28;20048;-64
2022/03/19 06:33:16;;;;;;;17.98;6.63;;;;;;;;;;5080481;28;20564;-63
2022/03/19 06:38:28;;;;;;;19.83;5.78;;;;;;;;;;5066711;28;20049;-63
2022/03/19 06:40:55;;;;;;;17.48;5.20;;;;;;;;;;5070124;28;20053;-63
2022/03/19 06:43:21;;;;;;;17.88;6.10;;;;;;;;;;5066598;28;20057;-63
2022/03/19 06:45:48;;;;;;;19.20;6.40;;;;;;;;;;5073076;28;20502;-63
2022/03/19 06:48:14;;;;;;;21.23;5.60;;;;;;;;;;5076873;28;20433;-63
2022/03/19 06:50:40;;;;;;;20.88;5.80;;;;;;;;;;5070927;28;20052;-63
2022/03/19 06:53:07;;;;;;;18.70;6.72;;;;;;;;;;5078180;28;20055;-63
2022/03/19 06:55:33;;;;;;;17.70;6.10;;;;;;;;;;5070316;28;20057;-63
2022/03/19 06:57:59;;;;;;;17.52;5.80;;;;;;;;;;5083551;28;20494;-63
2022/03/19 07:00:26;;;;;;;15.27;5.05;;;;;;;;;;5069487;28;20106;-63
2022/03/19 07:02:53;;;;;;;22.63;6.22;;;;;;;;;;5083711;28;20056;-62
2022/03/19 07:05:20;;;;;;;16.63;5.65;;;;;;;;;;5072870;28;20049;-63
2022/03/19 07:07:47;;;;;;;19.88;5.60;;;;;;;;;;5077083;28;20048;-63
2022/03/19 07:10:15;;;;;;;12.00;5.55;;;;;;;;;;5072350;28;20049;-63
2022/03/19 07:12:42;;;;;;;17.75;5.68;;;;;;;;;;5068883;28;20053;-63
2022/03/19 07:15:15;;;;;;;13.93;5.20;;;;;;;;;;5070845;28;20056;-63
2022/03/19 07:17:43;;;;;;;22.27;5.60;;;;;;;;;;5087224;28;20057;-63
2022/03/19 07:20:14;;;;;;;17.20;5.22;;;;;;;;;;5078462;28;20140;-63
2022/03/19 07:22:46;;;;;;;17.70;5.05;;;;;;;;;;5072520;28;20602;-63
2022/03/19 07:25:12;;;;;;;15.48;5.97;;;;;;;;;;5083741;28;20062;-63
2022/03/19 07:27:39;;;;;;;13.20;5.32;;;;;;;;;;5087637;28;20055;-63
2022/03/19 07:30:05;;;;;;;13.68;4.68;;;;;;;;;;5074165;28;20068;-63
2022/03/19 07:32:32;;;;;;;19.17;6.30;;;;;;;;;;5068947;28;20057;-63
2022/03/19 07:34:59;;;;;;;16.35;5.22;;;;;;;;;;5068180;28;20533;-63
2022/03/19 07:37:29;;;;;;;18.85;4.97;;;;;;;;;;5068997;28;20057;-63
2022/03/19 07:39:56;;;;;;;18.63;4.65;;;;;;;;;;5069544;28;20431;-63
2022/03/19 07:42:22;;;;;;;13.60;4.57;;;;;;;;;;5068769;28;20052;-63
2022/03/19 07:44:49;;;;;;;15.60;4.78;;;;;;;;;;5069546;28;21531;-63
2022/03/19 07:47:15;;;;;;;19.73;4.35;;;;;;;;;;5077812;28;20052;-63
2022/03/19 07:49:42;;;;;;;10.05;3.50;;;;;;;;;;5077229;28;20080;-64
2022/03/19 07:52:09;;;;;;;15.38;3.95;;;;;;;;;;5080428;28;20053;-63
2022/03/19 07:54:36;;;;;;;13.75;3.92;;;;;;;;;;5069920;28;20049;-63
2022/03/19 07:57:03;;;;;;;12.27;3.88;;;;;;;;;;5068604;28;20056;-64
2022/03/19 07:59:29;;;;;;;10.98;3.38;;;;;;;;;;5069509;28;20057;-63
2022/03/19 08:01:56;;;;;;;11.88;3.42;;;;;;;;;;5075574;28;20053;-63
2022/03/19 08:04:22;;;;;;;10.80;3.35;;;;;;;;;;5071283;28;20470;-63
2022/03/19 08:06:53;;;;;;;14.82;3.88;;;;;;;;;;5075193;28;20052;-63
2022/03/19 08:09:19;;;;;;;14.93;4.20;;;;;;;;;;5071473;28;20059;-63
2022/03/19 08:11:47;;;;;;;10.30;3.55;;;;;;;;;;5071914;28;20045;-63
2022/03/19 08:14:17;;;;;;;15.25;3.97;;;;;;;;;;5089611;28;20544;-63
2022/03/19 08:16:43;;;;;;;15.13;4.30;;;;;;;;;;5089068;28;20175;-63
2022/03/19 08:19:11;;;;;;;11.80;4.38;;;;;;;;;;5089354;28;20099;-63
2022/03/19 08:21:38;;;;;;;14.90;3.85;;;;;;;;;;5079806;28;20842;-63
2022/03/19 08:24:06;;;;;;;12.52;4.07;;;;;;;;;;5068073;28;20526;-63
2022/03/19 08:26:33;;;;;;;11.60;3.90;;;;;;;;;;5069681;28;20500;-63
2022/03/19 08:28:59;;;;;;;15.00;3.75;;;;;;;;;;5069052;28;20860;-63
2022/03/19 08:31:26;;;;;;;11.93;3.60;;;;;;;;;;5069010;28;20419;-62
2022/03/19 08:33:52;;;;;;;16.80;3.65;;;;;;;;;;5086918;28;20513;-63
2022/03/19 08:36:18;;;;;;;13.93;3.60;;;;;;;;;;5088666;28;20144;-63
2022/03/19 08:41:30;;;;;;;12.20;3.67;;;;;;;;;;5088375;28;20055;-63
2022/03/19 08:43:58;;;;;;;7.75;3.20;;;;;;;;;;5088088;28;20067;-63
2022/03/19 08:46:25;;;;;;;15.32;3.65;;;;;;;;;;5087750;28;20056;-64
2022/03/19 08:48:51;;;;;;;8.10;3.00;;;;;;;;;;5072419;28;20477;-65
2022/03/19 08:54:06;;;;;;;13.98;3.50;;;;;;;;;;5072632;28;20506;-65
2022/03/19 08:56:33;;;;;;;12.27;3.13;;;;;;;;;;5069489;28;20060;-65
2022/03/19 08:59:00;;;;;;;11.18;3.25;;;;;;;;;;5067270;28;20084;-65
2022/03/19 09:01:26;;;;;;;8.57;2.70;;;;;;;;;;5068344;28;20511;-65
2022/03/19 09:03:53;;;;;;;14.73;3.28;;;;;;;;;;5068422;28;20059;-66
2022/03/19 09:06:19;;;;;;;13.95;2.88;;;;;;;;;;5069326;28;20057;-65
2022/03/19 09:08:46;;;;;;;12.85;3.20;;;;;;;;;;5078382;28;20052;-65
2022/03/19 09:11:13;;;;;;;11.75;3.03;;;;;;;;;;5071352;28;20140;-65
2022/03/19 09:13:39;;;;;;;8.30;2.80;;;;;;;;;;5067316;28;20053;-65
2022/03/19 09:16:06;;;;;;;9.55;3.05;;;;;;;;;;5074686;28;20061;-65
2022/03/19 09:18:33;;;;;;;9.77;2.83;;;;;;;;;;5087665;28;20060;-65
2022/03/19 09:20:59;;;;;;;11.38;2.90;;;;;;;;;;5079379;28;20048;-65
2022/03/19 09:23:25;;;;;;;8.48;2.63;;;;;;;;;;5068021;28;20064;-64
2022/03/19 09:25:54;;;;;;;9.77;3.47;;;;;;;;;;5067490;28;20061;-62
2022/03/19 09:28:20;;;;;;;13.93;3.38;;;;;;;;;;5068538;28;20515;-62
2022/03/19 09:30:47;;;;;;;9.05;2.40;;;;;;;;;;5067914;28;22071;-62
2022/03/19 09:33:14;;;;;;;11.75;2.40;;;;;;;;;;5068630;28;20060;-62
2022/03/19 09:35:45;;;;;;;11.40;2.72;;;;;;;;;;5067595;28;20053;-62
2022/03/19 09:38:13;;;;;;;10.43;2.92;;;;;;;;;;5080776;28;20083;-63
2022/03/19 09:40:40;;;;;;;9.10;2.35;;;;;;;;;;5071822;28;20049;-62
2022/03/19 09:43:06;;;;;;;9.20;2.40;;;;;;;;;;5068601;28;20512;-62
2022/03/19 09:45:34;;;;;;;9.18;2.38;;;;;;;;;;5066613;28;20491;-62
2022/03/19 09:48:01;;;;;;;5.38;2.00;;;;;;;;;;5067670;28;20055;-62
2022/03/19 09:50:28;;;;;;;7.28;1.90;;;;;;;;;;5067606;28;20065;-62
2022/03/19 09:52:55;;;;;;;5.68;1.60;;;;;;;;;;5068792;28;20053;-62
2022/03/19 09:55:27;;;;;;;5.40;1.75;;;;;;;;;;5067203;28;20115;-62
2022/03/19 09:57:54;;;;;;;8.98;2.00;;;;;;;;;;5067457;28;20049;-62
2022/03/19 10:00:24;;;;;;;12.82;2.05;;;;;;;;;;5067531;28;20052;-62
2022/03/19 10:02:53;;;;;;;8.55;2.25;;;;;;;;;;5069705;28;20056;-62
2022/03/19 10:10:51;;;;;;;8.02;1.83;;;;;;;;;;5069771;28;20138;-62
2022/03/19 10:13:17;;;;;;;5.78;1.58;;;;;;;;;;5066877;28;20088;-62
2022/03/19 10:15:43;;;;;;;14.95;2.08;;;;;;;;;;5067539;28;20139;-62
2022/03/19 10:18:10;;;;;;;9.93;1.73;;;;;;;;;;5066936;28;20144;-62
2022/03/19 10:20:37;;;;;;;6.20;2.17;;;;;;;;;;5082928;28;20049;-62
2022/03/19 10:23:06;;;;;;;4.55;1.55;;;;;;;;;;5086936;28;20060;-62
2022/03/19 10:25:33;;;;;;;8.73;2.33;;;;;;;;;;5085643;28;20053;-62
2022/03/19 10:28:04;;;;;;;6.70;1.98;;;;;;;;;;5078791;28;20075;-62
2022/03/19 10:30:40;;;;;;;7.55;1.70;;;;;;;;;;5067362;28;20055;-62
2022/03/19 10:33:07;;;;;;;8.35;2.00;;;;;;;;;;5069380;28;20049;-62
2022/03/19 10:35:41;;;;;;;6.78;1.52;;;;;;;;;;5070096;28;20053;-62
2022/03/19 10:38:19;;;;;;;5.38;1.58;;;;;;;;;;5072801;28;20052;-62
2022/03/19 10:40:47;;;;;;;5.47;1.60;;;;;;;;;;5070540;28;20151;-62
2022/03/19 10:43:16;;;;;;;5.68;1.63;;;;;;;;;;5070341;28;20049;-62
2022/03/19 10:45:44;;;;;;;6.93;2.10;;;;;;;;;;5070007;28;20049;-62
2022/03/19 10:48:12;;;;;;;5.90;1.55;;;;;;;;;;5088321;28;20072;-62
2022/03/19 10:50:41;;;;;;;4.33;1.37;;;;;;;;;;5088953;28;20528;-62
2022/03/19 10:53:08;;;;;;;5.95;1.80;;;;;;;;;;5090666;28;20356;-62
2022/03/19 10:55:35;;;;;;;5.20;1.60;;;;;;;;;;5071156;28;20053;-62
2022/03/19 10:58:01;;;;;;;7.10;1.75;;;;;;;;;;5071642;28;20863;-62
2022/03/19 11:00:28;;;;;;;7.57;1.60;;;;;;;;;;5072607;28;20507;-62
2022/03/19 11:03:00;;;;;;;9.18;1.42;;;;;;;;;;5072111;28;20073;-62
2022/03/19 11:05:31;;;;;;;4.18;1.48;;;;;;;;;;5069688;28;20136;-63
2022/03/19 11:07:58;;;;;;;6.50;1.48;;;;;;;;;;5068731;28;20061;-62
2022/03/19 11:10:25;;;;;;;6.78;1.63;;;;;;;;;;5069503;28;20082;-62
2022/03/19 11:12:53;;;;;;;4.13;1.38;;;;;;;;;;5069211;28;20076;-62
2022/03/19 11:15:20;;;;;;;4.80;1.35;;;;;;;;;;5075659;28;20152;-62
2022/03/19 11:17:48;;;;;;;8.65;1.40;;;;;;;;;;5087465;28;20057;-62
2022/03/19 11:20:14;;;;;;;4.25;1.23;;;;;;;;;;5080811;28;20053;-62
2022/03/19 11:22:46;;;;;;;7.97;1.52;;;;;;;;;;5070639;28;20057;-62
2022/03/19 11:25:27;;;;;;;4.95;1.38;;;;;;;;;;5082819;28;20052;-62
2022/03/19 11:28:02;;;;;;;5.57;1.45;;;;;;;;;;5090336;28;20123;-62
2022/03/19 11:30:30;;;;;;;6.00;1.48;;;;;;;;;;5088626;28;20083;-63
2022/03/19 11:33:12;;;;;;;2.25;1.00;;;;;;;;;;5085685;28;20040;-63
2022/03/19 11:35:39;;;;;;;5.95;1.40;;;;;;;;;;5072983;28;20084;-62
2022/03/19 11:38:20;;;;;;;7.93;1.35;;;;;;;;;;5068852;28;20063;-63
2022/03/19 11:40:47;;;;;;;6.00;1.50;;;;;;;;;;5068832;28;20216;-62
2022/03/19 11:43:18;;;;;;;6.63;1.83;;;;;;;;;;5069595;28;20103;-63
2022/03/19 11:46:03;;;;;;;5.80;1.40;;;;;;;;;;5083552;28;20072;-62
2022/03/19 11:48:37;;;;;;;5.97;1.70;;;;;;;;;;5089109;28;20056;-62
2022/03/19 11:51:12;;;;;;;5.93;1.50;;;;;;;;;;5089106;28;20143;-62
2022/03/19 11:54:09;;;;;;;9.52;2.25;;;;;;;;;;5081493;28;20423;-62
2022/03/19 11:56:42;;;;;;;7.75;1.80;;;;;;;;;;5063822;28;20080;-62
2022/03/19 11:59:21;;;;;;;4.15;1.70;;;;;;;;;;5068246;28;20155;-62
2022/03/19 12:01:56;;;;;;;5.93;1.75;;;;;;;;;;5068865;28;21003;-62
2022/03/19 12:04:24;;;;;;;8.57;1.58;;;;;;;;;;5072378;28;20528;-62
2022/03/19 12:06:57;;;;;;;4.72;1.48;;;;;;;;;;5089758;28;20091;-62
2022/03/19 12:09:32;;;;;;;5.55;1.70;;;;;;;;;;5089532;28;20139;-62
2022/03/19 12:12:06;;;;;;;6.57;1.80;;;;;;;;;;5087619;28;20057;-63
2022/03/19 12:14:33;;;;;;;8.15;1.50;;;;;;;;;;5077391;28;20053;-62
2022/03/19 12:17:15;;;;;;;7.07;1.33;;;;;;;;;;5067575;28;20059;-63
2022/03/19 12:20:07;;;;;;;5.05;1.10;;;;;;;;;;5066385;28;20648;-63
2022/03/19 12:22:35;;;;;;;6.72;1.48;;;;;;;;;;5067801;28;20055;-63
2022/03/19 12:25:06;;;;;;;4.13;1.15;;;;;;;;;;5068119;28;20144;-63
2022/03/19 12:27:32;;;;;;;4.55;1.13;;;;;;;;;;5068497;28;20056;-63
2022/03/19 12:29:58;;;;;;;6.38;1.40;;;;;;;;;;5074432;28;20052;-63
2022/03/19 12:32:25;;;;;;;4.47;0.90;;;;;;;;;;5078868;28;20151;-63
2022/03/19 12:34:58;;;;;;;4.32;1.30;;;;;;;;;;5068270;28;20052;-63
2022/03/19 12:37:25;;;;;;;4.68;0.80;;;;;;;;;;5068243;28;20052;-62
2022/03/19 12:39:58;;;;;;;4.63;1.27;;;;;;;;;;5068315;28;20933;-62
2022/03/19 12:42:28;;;;;;;4.93;1.15;;;;;;;;;;5067929;28;20060;-63
2022/03/19 12:44:58;;;;;;;8.98;1.13;;;;;;;;;;5069022;28;20514;-63
2022/03/19 12:47:24;;;;;;;6.72;1.30;;;;;;;;;;5074583;28;20057;-62
2022/03/19 12:49:51;;;;;;;6.18;1.20;;;;;;;;;;5067671;28;20144;-62
2022/03/19 12:52:18;;;;;;;7.00;1.60;;;;;;;;;;5077738;28;20057;-63
2022/03/19 12:54:51;;;;;;;5.53;0.98;;;;;;;;;;5086751;28;20052;-63
2022/03/19 12:57:23;;;;;;;4.00;0.90;;;;;;;;;;5077686;28;20048;-64
2022/03/19 12:59:55;;;;;;;3.33;1.05;;;;;;;;;;5086316;28;20147;-63
2022/03/19 13:02:23;;;;;;;7.35;1.33;;;;;;;;;;5067902;28;20048;-64
2022/03/19 13:04:49;;;;;;;5.38;1.10;;;;;;;;;;5069683;28;20527;-63
2022/03/19 13:07:21;;;;;;;3.20;1.05;;;;;;;;;;5067083;28;20543;-65
2022/03/19 13:09:47;;;;;;;11.50;1.52;;;;;;;;;;5067689;28;20208;-64
2022/03/19 13:12:18;;;;;;;3.78;1.15;;;;;;;;;;5068531;28;20709;-63
2022/03/19 13:14:50;;;;;;;3.85;1.20;;;;;;;;;;5068195;28;20135;-64
2022/03/19 13:17:17;;;;;;;6.65;1.35;;;;;;;;;;5070171;28;20059;-64
2022/03/19 13:19:43;;;;;;;6.70;1.52;;;;;;;;;;5071315;28;20585;-64
2022/03/19 13:22:16;;;;;;;6.40;1.63;;;;;;;;;;5067169;28;20884;-64
2022/03/19 13:24:45;;;;;;;7.28;1.40;;;;;;;;;;5083042;28;20511;-68
2022/03/19 13:27:12;;;;;;;5.82;1.20;;;;;;;;;;5066388;28;20063;-65
2022/03/19 13:29:38;;;;;;;6.10;1.40;;;;;;;;;;5067699;28;20142;-65
2022/03/19 13:32:06;;;;;;;3.78;1.27;;;;;;;;;;5066996;28;20136;-64
2022/03/19 13:34:33;;;;;;;5.37;1.50;;;;;;;;;;5067161;28;20107;-66
2022/03/19 13:37:01;;;;;;;6.47;1.30;;;;;;;;;;5067740;28;20056;-65
2022/03/19 13:39:30;;;;;;;8.52;2.03;;;;;;;;;;5068114;28;20064;-65
2022/03/19 13:42:02;;;;;;;6.18;1.58;;;;;;;;;;5067102;28;20881;-65
2022/03/19 13:44:29;;;;;;;6.68;1.88;;;;;;;;;;5067459;28;20052;-65
2022/03/19 13:47:25;;;;;;;6.47;1.55;;;;;;;;;;5066732;28;20053;-66
2022/03/19 13:49:58;;;;;;;9.10;1.52;;;;;;;;;;5065677;28;20049;-65
2022/03/19 13:52:29;;;;;;;7.43;1.60;;;;;;;;;;5066888;28;20148;-65
2022/03/19 13:55:00;;;;;;;3.65;1.45;;;;;;;;;;5067298;28;20175;-65
2022/03/19 13:57:37;;;;;;;6.07;1.40;;;;;;;;;;5067093;28;20052;-65
2022/03/19 14:00:08;;;;;;;5.90;1.73;;;;;;;;;;5067529;28;20057;-65
2022/03/19 14:02:34;;;;;;;5.53;1.20;;;;;;;;;;5067612;28;20144;-66
2022/03/19 14:05:02;;;;;;;5.53;1.45;;;;;;;;;;5067069;28;20514;-65
2022/03/19 14:07:33;;;;;;;3.92;1.27;;;;;;;;;;5070400;28;20533;-65
2022/03/19 14:09:59;;;;;;;8.13;1.25;;;;;;;;;;5070683;28;20141;-65
2022/03/19 14:12:34;;;;;;;4.32;1.60;;;;;;;;;;5069869;28;20114;-64
2022/03/19 14:15:00;;;;;;;6.10;1.30;;;;;;;;;;5069922;28;20061;-64
2022/03/19 14:17:47;;;;;;;4.75;1.38;;;;;;;;;;5070420;28;20059;-64
2022/03/19 14:20:13;;;;;;;4.60;1.15;;;;;;;;;;5070947;28;20136;-64
2022/03/19 14:22:40;;;;;;;4.88;1.20;;;;;;;;;;5069391;28;20051;-64
2022/03/19 14:25:06;;;;;;;5.90;1.17;;;;;;;;;;5069711;28;20056;-64
2022/03/19 14:27:33;;;;;;;4.30;1.00;;;;;;;;;;5070445;28;20053;-64
2022/03/19 14:30:18;;;;;;;5.78;1.27;;;;;;;;;;5070054;28;20978;-64
2022/03/19 14:32:44;;;;;;;4.72;1.40;;;;;;;;;;5070361;28;20263;-65
2022/03/19 14:35:33;;;;;;;4.05;1.20;;;;;;;;;;5070453;28;20153;-65
2022/03/19 14:38:00;;;;;;;4.38;1.10;;;;;;;;;;5070951;28;20491;-65
2022/03/19 14:40:26;;;;;;;6.85;1.00;;;;;;;;;;5069817;28;20055;-65
2022/03/19 14:42:52;;;;;;;4.78;1.10;;;;;;;;;;5070414;28;20434;-64
2022/03/19 14:45:23;;;;;;;3.15;0.98;;;;;;;;;;5069307;28;20863;-65
2022/03/19 14:47:50;;;;;;;7.07;1.48;;;;;;;;;;5069882;28;20063;-65
2022/03/19 14:50:16;;;;;;;5.32;0.93;;;;;;;;;;5070234;28;20049;-65
2022/03/19 14:52:42;;;;;;;4.25;1.15;;;;;;;;;;5070105;28;20053;-65
2022/03/19 14:55:09;;;;;;;6.40;1.20;;;;;;;;;;5070251;28;20056;-66
2022/03/19 14:57:35;;;;;;;2.67;0.80;;;;;;;;;;5069685;28;20049;-65
2022/03/19 15:00:03;;;;;;;5.07;1.38;;;;;;;;;;5069817;28;20191;-65
2022/03/19 15:02:29;;;;;;;3.20;1.35;;;;;;;;;;5070066;28;20087;-65